Time;durP1;ratioP1;P1;durP2;ratioP2;P2;SDS_P1;SDS_P2;PMS_P1;PMS_P2;Temp;Humidity;BMP_temperature;BMP_pressure;BME280_temperature;BME280_humidity;BME280_pressure;Samples;Min_cycle;Max_cycle;Signal;HPM_P1;HPM_P2
2023/11/28 00:01:09;;;;;;;6.28;5.78;;;3.60;99.90;;;;;;5071896;28;20475;-35
2023/11/28 00:03:35;;;;;;;7.10;6.50;;;3.60;99.90;;;;;;5064353;28;20069;-36
2023/11/28 00:06:00;;;;;;;7.60;6.90;;;3.60;99.90;;;;;;5073984;28;20059;-36
2023/11/28 00:08:27;;;;;;;8.95;8.05;;;3.60;99.90;;;;;;5062973;28;20055;-36
2023/11/28 00:10:53;;;;;;;8.35;7.55;;;3.50;99.90;;;;;;5074284;28;20063;-37
2023/11/28 00:13:19;;;;;;;7.38;6.68;;;3.50;99.90;;;;;;5062416;28;20475;-37
2023/11/28 00:15:45;;;;;;;7.60;6.90;;;3.50;99.90;;;;;;5074599;28;20379;-36
2023/11/28 00:18:11;;;;;;;7.80;7.10;;;3.50;99.90;;;;;;5062932;28;20032;-37
2023/11/28 00:20:36;;;;;;;6.93;6.32;;;3.50;99.90;;;;;;5073928;28;20043;-35
2023/11/28 00:23:02;;;;;;;7.55;6.60;;;3.50;99.90;;;;;;5063129;28;20035;-36
2023/11/28 00:25:27;;;;;;;6.85;6.25;;;3.60;99.90;;;;;;5071623;28;20035;-37
2023/11/28 00:27:53;;;;;;;6.68;6.07;;;3.50;99.90;;;;;;5065156;28;20420;-36
2023/11/28 00:30:20;;;;;;;6.95;6.35;;;3.50;99.90;;;;;;5069248;28;20055;-37
2023/11/28 00:32:45;;;;;;;6.93;6.28;;;3.50;99.90;;;;;;5068999;28;20040;-36
2023/11/28 00:35:11;;;;;;;6.72;6.13;;;3.50;99.90;;;;;;5066160;28;20021;-42
2023/11/28 00:37:37;;;;;;;7.47;6.57;;;3.50;99.90;;;;;;5071464;28;20056;-36
2023/11/28 00:40:11;;;;;;;6.30;5.70;;;3.50;99.90;;;;;;5063166;28;20028;-35
2023/11/28 00:42:37;;;;;;;6.55;5.90;;;3.50;99.90;;;;;;5062336;28;20103;-38
2023/11/28 00:45:04;;;;;;;5.82;5.30;;;3.40;99.90;;;;;;5080960;28;20020;-37
2023/11/28 00:47:29;;;;;;;6.20;5.70;;;3.50;99.90;;;;;;5070302;28;20032;-36
2023/11/28 00:49:55;;;;;;;6.40;5.80;;;3.50;99.90;;;;;;5081194;28;20038;-36
2023/11/28 00:52:21;;;;;;;6.50;5.90;;;3.40;99.90;;;;;;5071249;28;20028;-36
2023/11/28 00:54:47;;;;;;;6.97;6.28;;;3.40;99.90;;;;;;5081987;28;20095;-35
2023/11/28 00:57:13;;;;;;;7.13;6.53;;;3.40;99.90;;;;;;5068961;28;20035;-36
2023/11/28 00:59:41;;;;;;;7.35;6.47;;;3.40;99.90;;;;;;5082105;28;20040;-38
2023/11/28 01:02:08;;;;;;;6.93;6.32;;;3.40;99.90;;;;;;5068314;28;20136;-35
2023/11/28 01:04:34;;;;;;;6.53;5.93;;;3.40;99.90;;;;;;5082961;28;20032;-40
2023/11/28 01:07:03;;;;;;;6.22;5.65;;;3.30;99.90;;;;;;5071848;28;20070;-36
2023/11/28 01:09:28;;;;;;;6.28;5.68;;;3.30;99.90;;;;;;5081442;28;20023;-36
2023/11/28 01:11:54;;;;;;;5.88;5.28;;;3.30;99.90;;;;;;5071756;28;20025;-37
2023/11/28 01:14:23;;;;;;;5.80;5.30;;;3.30;99.90;;;;;;5078426;28;20038;-36
2023/11/28 01:16:48;;;;;;;4.68;4.28;;;3.30;99.90;;;;;;5076152;28;20023;-36
2023/11/28 01:19:14;;;;;;;4.72;4.32;;;3.30;99.90;;;;;;5074922;28;20036;-36
2023/11/28 01:21:39;;;;;;;4.85;4.45;;;3.40;99.90;;;;;;5078256;28;20027;-36
2023/11/28 01:24:05;;;;;;;5.20;4.70;;;3.30;99.90;;;;;;5071640;28;20032;-36
2023/11/28 01:26:30;;;;;;;6.40;5.80;;;3.40;99.90;;;;;;5080526;28;20028;-35
2023/11/28 01:28:56;;;;;;;7.18;6.47;;;3.30;99.90;;;;;;5070336;28;20035;-36
2023/11/28 01:31:25;;;;;;;7.00;6.38;;;3.30;99.90;;;;;;5080455;28;20028;-36
2023/11/28 01:33:53;;;;;;;7.50;6.78;;;3.30;99.90;;;;;;5070333;28;20024;-36
2023/11/28 01:36:19;;;;;;;7.18;6.47;;;3.30;99.90;;;;;;5081531;28;20067;-36
2023/11/28 01:38:44;;;;;;;6.55;5.95;;;3.30;99.90;;;;;;5072487;28;20139;-35
2023/11/28 01:41:10;;;;;;;6.22;5.63;;;3.30;99.90;;;;;;5060684;28;20060;-35
2023/11/28 01:43:35;;;;;;;6.20;5.60;;;3.20;99.90;;;;;;5074339;28;20063;-36
2023/11/28 01:46:07;;;;;;;6.18;5.57;;;3.20;99.90;;;;;;5060832;28;20135;-37
2023/11/28 01:48:36;;;;;;;6.97;6.03;;;3.20;99.90;;;;;;5072251;28;20035;-36
2023/11/28 01:51:05;;;;;;;6.32;5.70;;;3.20;99.90;;;;;;5060677;28;20032;-35
2023/11/28 01:53:31;;;;;;;7.47;6.68;;;3.20;99.90;;;;;;5070221;28;20063;-35
2023/11/28 01:55:57;;;;;;;6.15;5.55;;;3.10;99.90;;;;;;5063607;28;20059;-36
2023/11/28 01:58:23;;;;;;;5.80;5.20;;;3.10;99.90;;;;;;5068854;28;20151;-35
2023/11/28 02:00:52;;;;;;;7.43;6.20;;;3.10;99.90;;;;;;5065238;28;20106;-35
2023/11/28 02:03:19;;;;;;;6.45;5.85;;;3.10;99.90;;;;;;5061854;28;20422;-36
2023/11/28 02:05:45;;;;;;;6.63;5.93;;;3.10;99.90;;;;;;5073648;28;20168;-36
2023/11/28 02:08:11;;;;;;;7.18;6.40;;;3.10;99.90;;;;;;5076646;28;20050;-36
2023/11/28 02:10:39;;;;;;;6.13;5.43;;;3.10;99.90;;;;;;5071246;28;20024;-36
2023/11/28 02:13:06;;;;;;;6.45;5.78;;;3.00;99.90;;;;;;5061976;28;20028;-35
2023/11/28 02:15:39;;;;;;;6.57;5.63;;;3.10;99.90;;;;;;5071924;28;20013;-35
2023/11/28 02:18:05;;;;;;;6.60;6.00;;;3.10;99.90;;;;;;5061445;28;20591;-35
2023/11/28 02:20:30;;;;;;;6.65;5.88;;;3.10;99.90;;;;;;5071370;28;20073;-35
2023/11/28 02:22:56;;;;;;;7.70;7.00;;;3.10;99.90;;;;;;5060040;28;20101;-35
2023/11/28 02:25:25;;;;;;;7.85;6.95;;;3.00;99.90;;;;;;5072208;28;20543;-35
2023/11/28 02:27:52;;;;;;;6.85;6.25;;;3.00;99.90;;;;;;5059036;28;20116;-35
2023/11/28 02:30:18;;;;;;;7.10;6.40;;;3.00;99.90;;;;;;5073262;28;20097;-35
2023/11/28 02:32:44;;;;;;;7.20;6.50;;;3.00;99.90;;;;;;5060031;28;20024;-35
2023/11/28 02:35:10;;;;;;;6.57;5.97;;;3.00;99.90;;;;;;5071798;28;20059;-36
2023/11/28 02:37:36;;;;;;;6.80;6.13;;;3.00;99.90;;;;;;5060567;28;20119;-35
2023/11/28 02:40:01;;;;;;;7.13;6.43;;;3.10;99.90;;;;;;5069161;28;20710;-35
2023/11/28 02:42:27;;;;;;;6.85;6.15;;;3.10;99.90;;;;;;5062912;28;20028;-35
2023/11/28 02:44:53;;;;;;;6.45;5.75;;;3.10;99.90;;;;;;5066916;28;20036;-35
2023/11/28 02:47:18;;;;;;;9.23;8.18;;;3.10;99.90;;;;;;5065844;28;20029;-39
2023/11/28 02:49:44;;;;;;;7.45;6.75;;;3.10;99.90;;;;;;5063652;28;20032;-36
2023/11/28 02:52:09;;;;;;;9.20;8.30;;;3.10;99.90;;;;;;5068024;28;20036;-37
2023/11/28 02:54:35;;;;;;;10.73;8.27;;;3.00;99.90;;;;;;5073137;28;20067;-36
2023/11/28 02:57:00;;;;;;;8.68;7.88;;;3.00;99.90;;;;;;5079690;28;20024;-37
2023/11/28 02:59:29;;;;;;;9.02;7.68;;;3.00;99.90;;;;;;5079549;28;20508;-36
2023/11/28 03:01:54;;;;;;;8.48;7.57;;;3.00;99.90;;;;;;5078978;28;20566;-36
2023/11/28 03:04:23;;;;;;;9.10;8.13;;;3.00;99.90;;;;;;5079210;28;20028;-35
2023/11/28 03:06:49;;;;;;;9.02;8.00;;;3.00;99.90;;;;;;5079968;28;20070;-35
2023/11/28 03:09:14;;;;;;;8.93;7.75;;;3.00;99.90;;;;;;5080090;28;20466;-35
2023/11/28 03:11:40;;;;;;;8.57;7.55;;;3.00;99.90;;;;;;5078851;28;20097;-35
2023/11/28 03:14:06;;;;;;;7.97;7.15;;;2.90;99.90;;;;;;5079719;28;20475;-36
2023/11/28 03:16:31;;;;;;;10.25;8.90;;;3.00;99.90;;;;;;5079373;28;20035;-36
2023/11/28 03:18:57;;;;;;;9.20;7.40;;;3.00;99.90;;;;;;5079168;28;20036;-35
2023/11/28 03:21:23;;;;;;;9.70;7.65;;;3.00;99.90;;;;;;5079545;28;20032;-36
2023/11/28 03:23:48;;;;;;;9.32;7.22;;;2.90;99.90;;;;;;5078932;28;20051;-36
2023/11/28 03:26:17;;;;;;;8.10;7.30;;;3.00;99.90;;;;;;5079898;28;20851;-36
2023/11/28 03:28:43;;;;;;;9.20;7.15;;;3.00;99.90;;;;;;5079828;28;20093;-36
2023/11/28 03:31:09;;;;;;;12.40;7.28;;;2.90;99.90;;;;;;5079248;28;20054;-36
2023/11/28 03:33:34;;;;;;;7.30;6.20;;;2.90;99.90;;;;;;5079912;28;20508;-36
2023/11/28 03:36:02;;;;;;;8.48;6.93;;;2.90;99.90;;;;;;5081964;28;20055;-37
2023/11/28 03:38:28;;;;;;;6.75;6.05;;;2.80;99.90;;;;;;5083016;28;20086;-36
2023/11/28 03:40:53;;;;;;;6.22;5.13;;;2.80;99.90;;;;;;5083545;28;20429;-37
2023/11/28 03:43:19;;;;;;;8.27;5.82;;;2.70;99.90;;;;;;5083632;28;20024;-36
2023/11/28 03:45:45;;;;;;;6.65;5.47;;;2.70;99.90;;;;;;5083358;28;20031;-36
2023/11/28 03:48:10;;;;;;;5.65;4.35;;;2.60;99.90;;;;;;5083259;28;20096;-36
2023/11/28 03:50:36;;;;;;;5.45;4.63;;;2.50;99.90;;;;;;5083798;28;20028;-35
2023/11/28 03:53:01;;;;;;;5.40;4.45;;;2.40;99.90;;;;;;5082559;28;20032;-37
2023/11/28 03:55:30;;;;;;;4.90;4.15;;;2.40;99.90;;;;;;5084472;28;20054;-36
2023/11/28 03:57:55;;;;;;;6.38;4.43;;;2.30;99.90;;;;;;5083048;28;20039;-35
2023/11/28 04:00:21;;;;;;;6.90;3.65;;;2.20;99.90;;;;;;5082825;28;20567;-37
2023/11/28 04:02:49;;;;;;;4.32;3.40;;;2.20;99.90;;;;;;5083297;28;20525;-36
2023/11/28 04:05:15;;;;;;;4.63;3.63;;;2.10;99.90;;;;;;5083918;28;20067;-35
2023/11/28 04:07:43;;;;;;;3.40;3.10;;;2.10;99.90;;;;;;5082760;28;20071;-36
2023/11/28 04:10:09;;;;;;;4.18;3.30;;;2.00;99.90;;;;;;5083805;28;20318;-35
2023/11/28 04:12:34;;;;;;;3.20;2.90;;;1.90;99.90;;;;;;5082827;28;20135;-36
2023/11/28 04:15:00;;;;;;;5.13;3.17;;;1.90;99.90;;;;;;5082069;28;20032;-40
2023/11/28 04:17:25;;;;;;;3.85;2.53;;;1.90;99.90;;;;;;5083076;28;20027;-36
2023/11/28 04:19:51;;;;;;;4.07;2.92;;;1.80;99.90;;;;;;5082426;28;20819;-37
2023/11/28 04:22:16;;;;;;;3.58;2.80;;;1.80;99.90;;;;;;5082308;28;20473;-35
2023/11/28 04:24:42;;;;;;;2.65;2.45;;;1.80;99.90;;;;;;5082581;28;20024;-35
2023/11/28 04:27:10;;;;;;;2.65;2.40;;;1.70;99.90;;;;;;5081988;28;20039;-35
2023/11/28 04:29:36;;;;;;;2.50;2.22;;;1.70;99.90;;;;;;5082295;28;20024;-37
2023/11/28 04:32:03;;;;;;;2.70;2.20;;;1.70;99.90;;;;;;5082952;28;20459;-35
2023/11/28 04:34:29;;;;;;;3.33;2.40;;;1.60;99.90;;;;;;5082164;28;20028;-41
2023/11/28 04:36:54;;;;;;;2.78;2.45;;;1.60;99.90;;;;;;5082457;28;20490;-35
2023/11/28 04:39:20;;;;;;;2.72;2.30;;;1.50;99.90;;;;;;5081221;28;20566;-36
2023/11/28 04:41:45;;;;;;;2.40;2.20;;;1.50;99.90;;;;;;5081395;28;20642;-36
2023/11/28 04:44:12;;;;;;;3.20;2.40;;;1.50;99.90;;;;;;5082325;28;20076;-36
2023/11/28 04:46:38;;;;;;;3.40;2.25;;;1.50;99.90;;;;;;5082865;28;20024;-37
2023/11/28 04:49:03;;;;;;;2.70;2.33;;;1.50;99.90;;;;;;5082058;28;20038;-36
2023/11/28 04:51:29;;;;;;;2.60;2.35;;;1.50;99.90;;;;;;5082037;28;20016;-36
2023/11/28 04:53:55;;;;;;;2.50;2.30;;;1.50;99.90;;;;;;5078123;28;20066;-36
2023/11/28 04:56:20;;;;;;;2.70;2.42;;;1.50;99.90;;;;;;5069691;28;20032;-36
2023/11/28 04:58:46;;;;;;;2.05;1.85;;;1.50;99.90;;;;;;5063820;28;20750;-36
2023/11/28 05:01:11;;;;;;;2.40;2.10;;;1.50;99.90;;;;;;5072989;28;20825;-35
2023/11/28 05:03:37;;;;;;;2.85;2.20;;;1.50;99.90;;;;;;5063070;28;20420;-36
2023/11/28 05:06:02;;;;;;;3.92;2.35;;;1.50;99.90;;;;;;5073147;28;20958;-36
2023/11/28 05:08:28;;;;;;;2.92;2.58;;;1.40;99.90;;;;;;5062062;28;20465;-36
2023/11/28 05:10:54;;;;;;;2.65;2.45;;;1.50;99.90;;;;;;5072797;28;20130;-36
2023/11/28 05:13:19;;;;;;;3.13;2.83;;;1.40;99.90;;;;;;5062297;28;20450;-37
2023/11/28 05:15:45;;;;;;;2.83;2.58;;;1.40;99.90;;;;;;5074038;28;20028;-37
2023/11/28 05:18:10;;;;;;;2.60;2.22;;;1.50;99.90;;;;;;5060679;28;20033;-37
2023/11/28 05:20:36;;;;;;;3.90;2.80;;;1.40;99.90;;;;;;5073536;28;20036;-46
2023/11/28 05:23:02;;;;;;;2.95;2.60;;;1.40;99.90;;;;;;5061862;28;20047;-37
2023/11/28 05:25:29;;;;;;;2.80;2.60;;;1.50;99.90;;;;;;5070498;28;20047;-37
2023/11/28 05:27:54;;;;;;;4.22;2.70;;;1.40;99.90;;;;;;5065415;28;20046;-36
2023/11/28 05:30:20;;;;;;;3.13;2.85;;;1.50;99.90;;;;;;5067650;28;20038;-36
2023/11/28 05:32:46;;;;;;;3.17;2.88;;;1.50;99.90;;;;;;5067372;28;20056;-35
2023/11/28 05:35:11;;;;;;;3.30;3.00;;;1.50;99.90;;;;;;5065127;28;20886;-37
2023/11/28 05:37:37;;;;;;;3.35;2.88;;;1.50;99.90;;;;;;5070123;28;20048;-38
2023/11/28 05:40:04;;;;;;;3.20;2.70;;;1.50;99.90;;;;;;5062219;28;20036;-37
2023/11/28 05:42:30;;;;;;;5.10;3.25;;;1.50;99.90;;;;;;5072505;28;20032;-38
2023/11/28 05:45:08;;;;;;;3.58;2.97;;;1.60;99.90;;;;;;5061786;28;20077;-36
2023/11/28 05:47:35;;;;;;;5.07;2.70;;;1.60;99.90;;;;;;5072527;28;20131;-38
2023/11/28 05:50:01;;;;;;;2.90;2.70;;;1.60;99.90;;;;;;5062322;28;20028;-35
2023/11/28 05:52:26;;;;;;;3.15;2.53;;;1.60;99.90;;;;;;5071166;28;20433;-35
2023/11/28 05:54:52;;;;;;;4.55;2.88;;;1.60;99.90;;;;;;5076286;28;20051;-37
2023/11/28 05:57:18;;;;;;;3.33;2.55;;;1.60;99.90;;;;;;5081256;28;20047;-37
2023/11/28 05:59:44;;;;;;;4.75;2.72;;;1.60;99.90;;;;;;5080664;28;20677;-36
2023/11/28 06:02:09;;;;;;;3.75;2.78;;;1.60;99.90;;;;;;5081156;28;20027;-36
2023/11/28 06:04:35;;;;;;;4.05;3.42;;;1.60;99.90;;;;;;5081112;28;20386;-37
2023/11/28 06:07:01;;;;;;;3.50;2.70;;;1.70;99.90;;;;;;5079291;28;20804;-37
2023/11/28 06:09:28;;;;;;;2.75;2.40;;;1.70;99.90;;;;;;5080681;28;20059;-37
2023/11/28 06:11:54;;;;;;;2.50;2.30;;;1.70;99.90;;;;;;5061374;28;20392;-35
2023/11/28 06:14:22;;;;;;;2.72;2.35;;;1.70;99.90;;;;;;5080074;28;20377;-36
2023/11/28 06:16:48;;;;;;;3.60;2.40;;;1.70;99.90;;;;;;5081337;28;20019;-36
2023/11/28 06:19:17;;;;;;;2.88;2.13;;;1.80;99.90;;;;;;5080512;28;20036;-37
2023/11/28 06:21:43;;;;;;;3.20;2.20;;;1.80;99.90;;;;;;5080482;28;20063;-36
2023/11/28 06:24:08;;;;;;;2.53;2.20;;;1.80;99.90;;;;;;5081077;28;20293;-38
2023/11/28 06:26:34;;;;;;;3.17;2.05;;;1.80;99.90;;;;;;5080152;28;20763;-35
2023/11/28 06:29:00;;;;;;;3.05;2.13;;;1.80;99.90;;;;;;5080422;28;20024;-36
2023/11/28 06:31:26;;;;;;;2.47;2.28;;;1.80;99.90;;;;;;5080660;28;20039;-37
2023/11/28 06:33:51;;;;;;;2.60;2.00;;;1.80;99.90;;;;;;5079837;28;20044;-36
2023/11/28 06:36:19;;;;;;;2.20;2.00;;;1.80;99.90;;;;;;5080900;28;20049;-38
2023/11/28 06:38:45;;;;;;;2.92;2.60;;;1.80;99.90;;;;;;5079973;28;20159;-36
2023/11/28 06:41:10;;;;;;;4.32;2.42;;;1.80;99.90;;;;;;5080131;28;20094;-36
2023/11/28 06:43:36;;;;;;;2.03;1.90;;;1.80;99.90;;;;;;5080437;28;20732;-36
2023/11/28 06:46:02;;;;;;;2.60;2.15;;;1.80;99.90;;;;;;5080779;28;20051;-36
2023/11/28 06:48:28;;;;;;;2.47;1.90;;;1.80;99.90;;;;;;5079977;28;20031;-36
2023/11/28 06:50:53;;;;;;;3.15;2.10;;;1.80;99.90;;;;;;5079968;28;20058;-36
2023/11/28 06:53:19;;;;;;;2.47;2.20;;;1.80;99.90;;;;;;5079833;28;20502;-36
2023/11/28 06:55:45;;;;;;;2.80;1.80;;;1.90;99.90;;;;;;5079571;28;20031;-35
2023/11/28 06:58:11;;;;;;;2.85;2.30;;;1.90;99.90;;;;;;5079874;28;20370;-36
2023/11/28 07:00:36;;;;;;;2.15;1.95;;;1.90;99.90;;;;;;5080694;28;20432;-39
2023/11/28 07:03:03;;;;;;;2.38;1.98;;;1.90;99.90;;;;;;5078580;28;20550;-37
2023/11/28 07:05:28;;;;;;;2.35;2.00;;;1.90;99.90;;;;;;5080298;28;20107;-36
2023/11/28 07:07:55;;;;;;;2.72;1.95;;;1.90;99.90;;;;;;5079798;28;21266;-35
2023/11/28 07:10:21;;;;;;;2.53;2.15;;;1.90;99.90;;;;;;5079136;28;20426;-36
2023/11/28 07:12:46;;;;;;;3.70;2.80;;;1.90;99.90;;;;;;5079609;28;20020;-36
2023/11/28 07:15:13;;;;;;;2.75;2.03;;;1.90;99.90;;;;;;5079996;28;20069;-36
2023/11/28 07:17:40;;;;;;;2.80;2.15;;;1.90;99.90;;;;;;5078100;28;20501;-36
2023/11/28 07:20:07;;;;;;;3.97;2.40;;;2.00;99.90;;;;;;5079335;28;20035;-36
2023/11/28 07:22:33;;;;;;;2.50;2.30;;;2.00;99.90;;;;;;5079690;28;20019;-36
2023/11/28 07:24:58;;;;;;;2.90;2.50;;;2.00;99.90;;;;;;5079160;28;20387;-36
2023/11/28 07:27:24;;;;;;;2.47;2.15;;;2.00;99.90;;;;;;5080134;28;20020;-36
2023/11/28 07:29:50;;;;;;;3.00;2.20;;;2.00;99.90;;;;;;5078016;28;20035;-37
2023/11/28 07:32:16;;;;;;;2.38;2.17;;;2.10;99.90;;;;;;5079274;28;20031;-37
2023/11/28 07:34:42;;;;;;;2.40;2.20;;;2.10;99.90;;;;;;5079408;28;20024;-37
2023/11/28 07:37:08;;;;;;;2.00;1.80;;;2.10;99.90;;;;;;5079174;28;20077;-36
2023/11/28 07:39:33;;;;;;;3.70;2.00;;;2.10;99.90;;;;;;5080009;28;20077;-38
2023/11/28 07:41:59;;;;;;;2.03;1.83;;;2.20;99.90;;;;;;5079943;28;20024;-37
2023/11/28 07:44:24;;;;;;;2.40;2.20;;;2.20;99.90;;;;;;5078697;28;20472;-36
2023/11/28 07:46:51;;;;;;;2.60;2.17;;;2.20;99.90;;;;;;5078392;28;20094;-36
2023/11/28 07:49:18;;;;;;;1.80;1.67;;;2.20;99.90;;;;;;5078794;28;20029;-35
2023/11/28 07:51:44;;;;;;;3.03;2.30;;;2.20;99.90;;;;;;5078709;28;20027;-36
2023/11/28 07:54:10;;;;;;;1.88;1.77;;;2.30;99.90;;;;;;5078965;28;20048;-36
2023/11/28 07:56:35;;;;;;;2.03;1.80;;;2.30;99.90;;;;;;5078519;28;20035;-36
2023/11/28 07:59:04;;;;;;;3.83;2.10;;;2.30;99.90;;;;;;5078457;28;20123;-36
2023/11/28 08:01:29;;;;;;;3.03;1.70;;;2.30;99.90;;;;;;5080595;28;20414;-37
2023/11/28 08:03:55;;;;;;;3.05;1.95;;;2.30;99.90;;;;;;5079606;28;20082;-37
2023/11/28 08:06:21;;;;;;;1.85;1.70;;;2.30;99.90;;;;;;5079954;28;20024;-37
2023/11/28 08:08:46;;;;;;;1.80;1.38;;;2.40;99.90;;;;;;5079390;28;20502;-35
2023/11/28 08:11:12;;;;;;;3.17;1.60;;;2.40;99.90;;;;;;5078785;28;20024;-35
2023/11/28 08:13:39;;;;;;;1.88;1.50;;;2.40;99.90;;;;;;5079226;28;20748;-36
2023/11/28 08:16:05;;;;;;;1.80;1.60;;;2.40;99.90;;;;;;5079386;28;20046;-36
2023/11/28 08:18:31;;;;;;;1.67;1.58;;;2.40;99.90;;;;;;5079476;28;20114;-42
2023/11/28 08:20:57;;;;;;;1.88;1.35;;;2.40;99.90;;;;;;5078747;28;20209;-37
2023/11/28 08:23:22;;;;;;;1.73;1.63;;;2.40;99.90;;;;;;5082449;28;20081;-35
2023/11/28 08:25:49;;;;;;;1.55;1.45;;;2.40;99.90;;;;;;5082559;28;20023;-35
2023/11/28 08:28:15;;;;;;;1.75;1.60;;;2.30;99.90;;;;;;5082305;28;20052;-36
2023/11/28 08:30:40;;;;;;;1.95;1.67;;;2.30;99.90;;;;;;5082364;28;20131;-38
2023/11/28 08:33:06;;;;;;;1.77;1.65;;;2.30;99.90;;;;;;5081753;28;20027;-36
2023/11/28 08:35:32;;;;;;;1.55;1.40;;;2.30;99.90;;;;;;5081998;28;20546;-36
2023/11/28 08:37:57;;;;;;;1.48;1.30;;;2.20;99.90;;;;;;5082035;28;20428;-37
2023/11/28 08:40:23;;;;;;;1.83;1.38;;;2.20;99.90;;;;;;5082310;28;20044;-36
2023/11/28 08:42:48;;;;;;;1.40;1.25;;;2.20;99.90;;;;;;5082120;28;20031;-36
2023/11/28 08:45:14;;;;;;;1.52;1.42;;;2.10;99.90;;;;;;5081837;28;20027;-36
2023/11/28 08:47:40;;;;;;;2.20;1.55;;;2.10;99.90;;;;;;5081191;28;20115;-36
2023/11/28 08:50:06;;;;;;;1.60;1.50;;;2.10;99.90;;;;;;5082484;28;20059;-41
2023/11/28 08:52:32;;;;;;;2.40;1.67;;;2.10;99.90;;;;;;5082125;28;20670;-34
2023/11/28 08:55:00;;;;;;;2.20;1.50;;;2.00;99.90;;;;;;5081219;28;20040;-37
2023/11/28 08:57:33;;;;;;;1.63;1.52;;;2.00;99.90;;;;;;5082277;28;20027;-37
2023/11/28 09:00:04;;;;;;;2.05;1.63;;;2.00;99.90;;;;;;5083038;28;20493;-36
2023/11/28 09:02:30;;;;;;;2.42;1.52;;;2.00;99.90;;;;;;5082360;28;20046;-36
2023/11/28 09:04:56;;;;;;;1.58;1.48;;;2.00;99.90;;;;;;5082689;28;20085;-37
2023/11/28 09:07:22;;;;;;;1.65;1.55;;;2.00;99.90;;;;;;5082430;28;20375;-35
2023/11/28 09:09:47;;;;;;;1.75;1.65;;;2.00;99.90;;;;;;5081613;28;20563;-36
2023/11/28 09:12:17;;;;;;;3.13;1.50;;;2.00;99.90;;;;;;5081922;28;20028;-36
2023/11/28 09:14:43;;;;;;;1.50;1.40;;;2.00;99.90;;;;;;5081533;28;20479;-36
2023/11/28 09:17:09;;;;;;;1.95;1.80;;;2.00;99.90;;;;;;5081550;28;20077;-36
2023/11/28 09:19:35;;;;;;;2.55;1.73;;;2.00;99.90;;;;;;5081410;28;20048;-36
2023/11/28 09:22:02;;;;;;;2.83;1.90;;;2.00;99.90;;;;;;5081169;28;20038;-36
2023/11/28 09:24:31;;;;;;;3.38;2.17;;;2.00;99.90;;;;;;5081103;28;20081;-36
2023/11/28 09:26:57;;;;;;;2.25;2.05;;;2.00;99.90;;;;;;5080768;28;20059;-36
2023/11/28 09:29:23;;;;;;;2.53;1.73;;;2.00;99.90;;;;;;5079486;28;20074;-36
2023/11/28 09:31:49;;;;;;;3.50;1.92;;;2.10;99.90;;;;;;5081553;28;20107;-36
2023/11/28 09:34:15;;;;;;;2.00;1.80;;;2.10;99.90;;;;;;5080418;28;20028;-36
2023/11/28 09:36:41;;;;;;;1.80;1.70;;;2.10;99.90;;;;;;5081009;28;20020;-36
2023/11/28 09:39:09;;;;;;;2.20;2.00;;;2.20;99.90;;;;;;5081083;28;20048;-36
2023/11/28 09:41:38;;;;;;;1.90;1.70;;;2.10;99.90;;;;;;5081345;28;20028;-36
2023/11/28 09:44:07;;;;;;;2.15;1.88;;;2.20;99.90;;;;;;5080804;28;20038;-36
2023/11/28 09:46:36;;;;;;;3.40;1.85;;;2.20;99.90;;;;;;5082873;28;20051;-37
2023/11/28 09:49:03;;;;;;;1.98;1.70;;;2.20;99.90;;;;;;5082369;28;20026;-35
2023/11/28 09:51:31;;;;;;;3.00;2.20;;;2.30;99.90;;;;;;5081870;28;20024;-36
2023/11/28 09:53:58;;;;;;;2.72;2.38;;;2.30;99.90;;;;;;5081057;28;20039;-35
2023/11/28 09:56:24;;;;;;;4.43;2.10;;;2.30;99.90;;;;;;5081051;28;20020;-36
2023/11/28 09:58:58;;;;;;;2.33;2.03;;;2.40;99.90;;;;;;5079322;28;20028;-36
2023/11/28 10:01:26;;;;;;;3.45;2.22;;;2.40;99.90;;;;;;5081435;28;20028;-36
2023/11/28 10:03:52;;;;;;;3.17;2.00;;;2.40;99.90;;;;;;5080472;28;20027;-36
2023/11/28 10:06:21;;;;;;;2.13;1.90;;;2.50;99.90;;;;;;5080809;28;20020;-36
2023/11/28 10:08:50;;;;;;;2.58;1.92;;;2.50;99.90;;;;;;5079894;28;20099;-35
2023/11/28 10:11:16;;;;;;;1.80;1.70;;;2.50;99.90;;;;;;5062664;28;20027;-36
2023/11/28 10:13:45;;;;;;;2.67;2.10;;;2.50;99.90;;;;;;5080475;28;20024;-36
2023/11/28 10:16:12;;;;;;;2.35;1.80;;;2.60;99.90;;;;;;5080739;28;20039;-36
2023/11/28 10:18:46;;;;;;;1.95;1.60;;;2.60;99.90;;;;;;5080020;28;20028;-36
2023/11/28 10:21:14;;;;;;;3.58;1.85;;;2.60;99.90;;;;;;5080683;28;20038;-35
2023/11/28 10:23:45;;;;;;;2.28;1.80;;;2.60;99.90;;;;;;5080871;28;20032;-37
2023/11/28 10:26:11;;;;;;;2.45;2.15;;;2.70;99.90;;;;;;5078766;28;20051;-36
2023/11/28 10:28:37;;;;;;;2.95;1.98;;;2.70;99.90;;;;;;5080475;28;20792;-36
2023/11/28 10:31:06;;;;;;;3.03;2.00;;;2.70;99.90;;;;;;5080073;28;20024;-36
2023/11/28 10:33:32;;;;;;;2.47;2.00;;;2.70;99.90;;;;;;5059660;28;20135;-36
2023/11/28 10:36:00;;;;;;;3.17;2.20;;;2.70;99.90;;;;;;5073486;28;20028;-36
2023/11/28 10:38:27;;;;;;;3.45;2.20;;;2.80;99.90;;;;;;5081013;28;20036;-36
2023/11/28 10:40:55;;;;;;;2.90;2.20;;;2.80;99.90;;;;;;5079266;28;20142;-36
2023/11/28 10:43:21;;;;;;;3.13;2.10;;;2.90;99.90;;;;;;5080835;28;20226;-36
2023/11/28 10:45:47;;;;;;;2.17;1.98;;;2.80;99.90;;;;;;5079288;28;20036;-36
2023/11/28 10:48:13;;;;;;;3.83;2.63;;;2.90;99.90;;;;;;5079050;28;20100;-35
2023/11/28 10:50:43;;;;;;;3.13;2.30;;;2.90;99.90;;;;;;5079839;28;20027;-37
2023/11/28 10:53:12;;;;;;;2.55;2.17;;;3.00;99.90;;;;;;5079486;28;20023;-37
2023/11/28 10:55:50;;;;;;;2.55;2.13;;;3.00;99.90;;;;;;5079497;28;20055;-36
2023/11/28 10:58:16;;;;;;;4.00;2.13;;;3.00;99.90;;;;;;5080125;28;20069;-36
2023/11/28 11:00:45;;;;;;;2.95;2.00;;;3.00;99.90;;;;;;5079227;28;20028;-36
2023/11/28 11:03:15;;;;;;;2.33;2.13;;;3.00;99.90;;;;;;5075873;28;20028;-36
2023/11/28 11:05:44;;;;;;;2.70;2.47;;;3.10;99.90;;;;;;5079219;28;20052;-36
2023/11/28 11:08:11;;;;;;;2.30;2.10;;;3.10;99.90;;;;;;5060785;28;20028;-36
2023/11/28 11:10:39;;;;;;;2.10;1.90;;;3.10;99.90;;;;;;5079582;28;20028;-36
2023/11/28 11:13:38;;;;;;;2.10;1.88;;;3.10;99.90;;;;;;5080000;28;20032;-36
2023/11/28 11:16:44;;;;;;;1.52;1.42;;;3.20;99.90;;;;;;5078500;28;20028;-37
2023/11/28 11:19:11;;;;;;;1.98;1.63;;;3.30;99.90;;;;;;5008136;28;20045;-36
2023/11/28 11:21:43;;;;;;;2.20;2.00;;;3.40;99.90;;;;;;5058849;28;20036;-37
2023/11/28 11:24:17;;;;;;;2.80;2.45;;;3.40;99.90;;;;;;5078999;28;20467;-37
2023/11/28 11:26:46;;;;;;;2.53;2.17;;;3.50;99.90;;;;;;5079448;28;20743;-35
2023/11/28 11:29:24;;;;;;;2.67;2.00;;;3.50;99.90;;;;;;5079459;28;20028;-36
2023/11/28 11:31:56;;;;;;;2.95;2.25;;;3.60;99.90;;;;;;5078347;28;20027;-37
2023/11/28 11:34:43;;;;;;;2.13;1.90;;;3.60;99.90;;;;;;5079840;28;20440;-37
2023/11/28 11:37:20;;;;;;;3.90;2.50;;;3.70;99.90;;;;;;5079581;28;20028;-35
2023/11/28 11:39:47;;;;;;;2.50;2.30;;;3.80;99.90;;;;;;5080268;28;20072;-35
2023/11/28 11:42:17;;;;;;;2.95;2.40;;;3.80;99.90;;;;;;5079194;28;20487;-36
2023/11/28 11:44:49;;;;;;;2.47;2.13;;;3.80;99.90;;;;;;5079321;28;20032;-38
2023/11/28 11:47:20;;;;;;;1.85;1.67;;;3.80;99.90;;;;;;5079295;28;20020;-35
2023/11/28 11:49:47;;;;;;;2.55;1.95;;;3.90;99.90;;;;;;5068033;28;20640;-41
2023/11/28 11:52:14;;;;;;;2.25;2.05;;;3.90;99.90;;;;;;5079004;28;20047;-36
2023/11/28 11:54:44;;;;;;;1.75;1.55;;;4.00;99.90;;;;;;5079084;28;20044;-39
2023/11/28 11:57:11;;;;;;;2.90;1.70;;;4.10;99.90;;;;;;5081434;28;20363;-36
2023/11/28 11:59:41;;;;;;;2.92;2.05;;;4.20;99.90;;;;;;5083824;28;20025;-36
2023/11/28 12:02:09;;;;;;;2.47;2.25;;;4.30;99.90;;;;;;5083777;28;20550;-35
2023/11/28 12:04:41;;;;;;;2.10;1.90;;;4.30;99.90;;;;;;5083054;28;20838;-37
2023/11/28 12:07:09;;;;;;;1.67;1.58;;;4.20;99.90;;;;;;5084400;28;20095;-36
2023/11/28 12:09:35;;;;;;;2.40;1.77;;;4.30;99.90;;;;;;5083517;28;20056;-36
2023/11/28 12:12:04;;;;;;;2.28;1.85;;;4.30;99.90;;;;;;5081997;28;20032;-37
2023/11/28 12:14:31;;;;;;;1.50;1.40;;;4.40;99.90;;;;;;5083307;28;20020;-36
2023/11/28 12:16:56;;;;;;;1.98;1.50;;;4.40;99.90;;;;;;5062115;28;20113;-36
2023/11/28 12:19:22;;;;;;;2.00;1.70;;;4.40;99.90;;;;;;5076508;28;20554;-36
2023/11/28 12:21:48;;;;;;;1.92;1.25;;;4.40;99.90;;;;;;5082939;28;20024;-35
2023/11/28 12:24:13;;;;;;;3.35;1.60;;;4.40;99.90;;;;;;5083689;28;20104;-36
2023/11/28 12:26:43;;;;;;;1.42;1.33;;;4.40;99.90;;;;;;5083128;28;20027;-36
2023/11/28 12:29:09;;;;;;;1.98;1.70;;;4.40;99.90;;;;;;5082962;28;20100;-38
2023/11/28 12:31:35;;;;;;;1.50;1.35;;;4.50;99.90;;;;;;5083529;28;20024;-36
2023/11/28 12:34:01;;;;;;;37.90;7.03;;;4.50;99.90;;;;;;5081961;28;20077;-36
2023/11/28 12:36:29;;;;;;;4.18;2.20;;;4.50;99.90;;;;;;5082492;28;20365;-37
2023/11/28 12:39:38;;;;;;;2.55;1.80;;;4.60;99.90;;;;;;5082595;28;20089;-37
2023/11/28 12:41:46;;;;;;;2.85;2.40;;;4.50;99.90;;;;;;5068321;28;20115;-35
2023/11/28 12:44:11;;;;;;;2.10;1.90;;;4.50;99.90;;;;;;5082704;28;20089;-36
2023/11/28 12:46:44;;;;;;;1.73;1.55;;;4.50;99.90;;;;;;5082820;28;20020;-36
2023/11/28 12:49:10;;;;;;;1.70;1.60;;;4.50;99.90;;;;;;5082311;28;20459;-36
2023/11/28 12:51:38;;;;;;;2.17;1.80;;;4.50;99.90;;;;;;5083496;28;20016;-36
2023/11/28 12:54:08;;;;;;;2.25;1.50;;;4.50;99.90;;;;;;5080304;28;20055;-36
2023/11/28 12:56:36;;;;;;;1.50;1.40;;;4.50;99.90;;;;;;5070199;28;20777;-36